createdAt,value
2022-08-16T00:00:20.454Z,45.10
2022-08-16T00:02:50.217Z,45.20
2022-08-16T00:05:19.475Z,45.30
2022-08-16T00:07:47.343Z,45.40
2022-08-16T00:10:20.744Z,45.30
2022-08-16T00:12:50.016Z,45.40
2022-08-16T00:15:22.398Z,45.50
2022-08-16T00:17:56.290Z,45.60
2022-08-16T00:20:25.076Z,45.60
2022-08-16T00:22:52.888Z,45.70
2022-08-16T00:26:33.413Z,45.70
2022-08-16T00:28:11.070Z,45.80
2022-08-16T00:30:38.286Z,45.70
2022-08-16T00:33:07.393Z,45.80
2022-08-16T00:35:37.192Z,46.00
2022-08-16T00:38:40.825Z,46.00
2022-08-16T00:40:54.587Z,46.00
2022-08-16T00:43:42.426Z,46.10
2022-08-16T00:46:33.681Z,46.30
2022-08-16T00:49:04.657Z,46.30
2022-08-16T00:51:31.938Z,46.20
2022-08-16T00:53:59.078Z,46.30
2022-08-16T00:56:56.391Z,46.40
2022-08-16T00:59:24.799Z,46.60
2022-08-16T01:01:52.333Z,46.80
2022-08-16T01:04:30.124Z,46.60
2022-08-16T01:07:04.965Z,46.70
2022-08-16T01:09:38.078Z,46.80
2022-08-16T01:12:11.134Z,46.80
2022-08-16T01:14:57.336Z,46.80
2022-08-16T01:17:25.382Z,46.90
2022-08-16T01:19:57.090Z,46.90
2022-08-16T01:22:47.862Z,47.10
2022-08-16T01:25:33.759Z,47.30
2022-08-16T01:28:05.570Z,47.20
2022-08-16T01:30:40.047Z,47.10
2022-08-16T01:33:19.342Z,47.30
2022-08-16T01:36:01.415Z,47.20
2022-08-16T01:38:53.260Z,47.40
2022-08-16T01:41:30.577Z,47.40
2022-08-16T01:44:00.856Z,47.40
2022-08-16T01:46:40.108Z,47.50
2022-08-16T01:49:22.541Z,47.60
2022-08-16T01:51:59.038Z,47.60
2022-08-16T01:54:42.791Z,47.70
2022-08-16T01:57:11.902Z,47.60
2022-08-16T01:59:41.151Z,47.70
2022-08-16T02:02:26.730Z,47.70
2022-08-16T02:04:55.857Z,47.80
2022-08-16T02:07:26.049Z,47.90
2022-08-16T02:09:57.243Z,47.90
2022-08-16T02:12:49.794Z,48.00
2022-08-16T02:15:25.468Z,48.00
2022-08-16T02:17:57.362Z,48.00
2022-08-16T02:20:26.336Z,48.10
2022-08-16T02:22:56.480Z,48.10
2022-08-16T02:25:23.427Z,48.10
2022-08-16T02:27:51.604Z,48.10
2022-08-16T02:30:36.897Z,48.20
2022-08-16T02:33:11.764Z,48.30
2022-08-16T02:35:54.146Z,48.30
2022-08-16T02:38:29.141Z,48.40
2022-08-16T02:41:00.902Z,48.30
2022-08-16T02:43:33.026Z,48.30
2022-08-16T02:46:07.400Z,48.40
2022-08-16T02:48:38.345Z,48.50
2022-08-16T02:51:11.048Z,48.50
2022-08-16T02:53:43.800Z,48.50
2022-08-16T02:56:15.554Z,48.70
2022-08-16T02:58:45.579Z,48.70
2022-08-16T03:01:25.476Z,48.70
2022-08-16T03:04:39.353Z,48.80
2022-08-16T03:06:56.346Z,48.70
2022-08-16T03:09:36.859Z,48.70
2022-08-16T03:12:05.981Z,48.80
2022-08-16T03:14:34.207Z,48.90
2022-08-16T03:17:02.956Z,49.40
2022-08-16T03:19:45.787Z,49.00
2022-08-16T03:22:19.177Z,49.00
2022-08-16T03:24:59.010Z,49.00
2022-08-16T03:27:32.298Z,49.10
2022-08-16T03:30:16.382Z,49.20
2022-08-16T03:32:58.187Z,49.30
2022-08-16T03:35:32.633Z,49.20
2022-08-16T03:38:33.027Z,49.30
2022-08-16T03:41:17.144Z,49.20
2022-08-16T03:43:55.730Z,49.30
2022-08-16T03:46:47.445Z,49.30
2022-08-16T03:49:14.354Z,49.30
2022-08-16T03:51:44.464Z,49.30
2022-08-16T03:54:19.008Z,49.40
2022-08-16T03:56:57.082Z,49.50
2022-08-16T03:59:30.434Z,49.60
2022-08-16T04:02:12.130Z,49.60
2022-08-16T04:04:50.177Z,49.70
2022-08-16T04:07:17.474Z,49.70
2022-08-16T04:09:47.112Z,49.80
2022-08-16T04:12:52.365Z,49.80
2022-08-16T04:15:02.704Z,49.80
2022-08-16T04:17:32.584Z,49.80
2022-08-16T04:20:23.599Z,49.80
2022-08-16T04:22:55.983Z,49.90
2022-08-16T04:25:23.851Z,49.90
2022-08-16T04:27:55.823Z,50.00
2022-08-16T04:30:31.760Z,50.00
2022-08-16T04:32:59.614Z,50.10
2022-08-16T04:35:34.220Z,50.20
2022-08-16T04:38:10.889Z,50.20
2022-08-16T04:40:48.531Z,50.30
2022-08-16T04:43:18.816Z,50.30
2022-08-16T04:45:47.359Z,50.30
2022-08-16T04:48:34.052Z,50.40
2022-08-16T04:51:12.353Z,50.40
2022-08-16T04:53:47.229Z,50.40
2022-08-16T04:56:17.877Z,50.40
2022-08-16T04:58:46.937Z,50.60
2022-08-16T05:01:18.609Z,50.50
2022-08-16T05:03:59.640Z,50.60
2022-08-16T05:06:45.491Z,50.70
2022-08-16T05:09:36.468Z,50.70
2022-08-16T05:12:05.715Z,50.70
2022-08-16T05:14:45.665Z,50.80
2022-08-16T05:17:18.556Z,50.90
2022-08-16T05:19:46.694Z,51.00
2022-08-16T05:22:28.391Z,51.10
2022-08-16T05:24:56.084Z,51.10
2022-08-16T05:27:23.048Z,51.20
2022-08-16T05:29:57.524Z,51.30
2022-08-16T05:32:34.148Z,51.30
2022-08-16T05:35:15.961Z,51.40
2022-08-16T05:38:01.372Z,51.40
2022-08-16T05:40:29.758Z,51.50
2022-08-16T05:42:57.698Z,51.50
2022-08-16T05:45:26.005Z,51.60
2022-08-16T05:47:59.692Z,51.70
2022-08-16T05:50:35.882Z,51.70
2022-08-16T05:53:06.536Z,51.70
2022-08-16T05:55:42.392Z,51.80
2022-08-16T05:58:09.679Z,51.90
2022-08-16T06:00:56.898Z,51.90
2022-08-16T06:03:25.061Z,51.90
2022-08-16T06:06:00.705Z,52.00
2022-08-16T06:08:31.722Z,52.00
2022-08-16T06:11:09.562Z,52.10
2022-08-16T06:13:42.250Z,52.10
2022-08-16T06:16:18.450Z,52.20
2022-08-16T06:18:47.202Z,52.30
2022-08-16T06:21:22.848Z,52.30
2022-08-16T06:23:56.861Z,52.50
2022-08-16T06:26:34.780Z,52.40
2022-08-16T06:29:07.707Z,52.50
2022-08-16T06:31:46.943Z,52.60
2022-08-16T06:34:31.592Z,52.90
2022-08-16T06:37:05.318Z,52.90
2022-08-16T06:39:49.231Z,52.80
2022-08-16T06:42:47.575Z,52.80
2022-08-16T06:45:29.455Z,52.80
2022-08-16T06:48:05.640Z,52.90
2022-08-16T06:50:33.355Z,53.00
2022-08-16T06:53:08.282Z,53.60
2022-08-16T06:55:38.371Z,53.40
2022-08-16T06:58:22.057Z,53.20
2022-08-16T07:00:58.119Z,53.10
2022-08-16T07:03:32.559Z,53.10
2022-08-16T07:06:00.980Z,53.20
2022-08-16T07:08:35.342Z,53.20
2022-08-16T07:11:05.045Z,53.20
2022-08-16T07:16:27.832Z,53.20
2022-08-16T07:19:01.270Z,53.10
2022-08-16T07:21:46.438Z,53.20
2022-08-16T07:24:29.460Z,53.20
2022-08-16T07:27:01.414Z,53.40
2022-08-16T07:29:31.374Z,53.60
2022-08-16T07:32:01.080Z,53.50
2022-08-16T07:34:35.581Z,53.40
2022-08-16T07:37:09.724Z,53.50
2022-08-16T07:39:54.724Z,53.60
2022-08-16T07:42:34.881Z,53.40
2022-08-16T07:45:10.048Z,53.30
2022-08-16T07:47:38.794Z,53.40
2022-08-16T07:50:57.448Z,53.30
2022-08-16T07:52:57.410Z,53.50
2022-08-16T07:55:27.314Z,53.50
2022-08-16T07:58:01.042Z,53.60
2022-08-16T08:00:35.275Z,53.60
2022-08-16T08:03:02.659Z,53.60
2022-08-16T08:05:35.780Z,53.60
2022-08-16T08:08:11.859Z,53.50
2022-08-16T08:10:53.049Z,53.30
2022-08-16T08:13:20.173Z,53.00
2022-08-16T08:16:07.260Z,52.80
2022-08-16T08:18:50.543Z,52.60
2022-08-16T08:21:26.409Z,52.40
2022-08-16T08:23:57.598Z,52.20
2022-08-16T08:26:25.337Z,52.20
2022-08-16T08:28:52.569Z,52.40
2022-08-16T08:31:21.862Z,53.20
2022-08-16T08:33:51.565Z,53.20
2022-08-16T08:36:33.060Z,53.50
2022-08-16T08:39:13.291Z,53.10
2022-08-16T08:41:43.968Z,54.10
2022-08-16T08:44:28.648Z,54.80
2022-08-16T08:47:10.977Z,54.90
2022-08-16T08:49:46.654Z,52.80
2022-08-16T08:52:34.535Z,51.20
2022-08-16T08:55:09.467Z,50.40
2022-08-16T08:57:45.241Z,49.50
2022-08-16T09:00:30.125Z,49.10
2022-08-16T09:03:04.519Z,46.40
2022-08-16T09:05:35.721Z,47.40
2022-08-16T09:08:07.365Z,46.60
2022-08-16T09:11:02.905Z,46.30
2022-08-16T09:13:33.094Z,45.40
2022-08-16T09:16:00.673Z,42.50
2022-08-16T09:18:35.680Z,41.10
2022-08-16T09:21:07.149Z,41.60
2022-08-16T09:23:38.804Z,41.50
2022-08-16T09:26:44.623Z,41.20
2022-08-16T09:29:15.673Z,41.10
2022-08-16T09:31:43.917Z,40.70
2022-08-16T09:34:15.865Z,39.90
2022-08-16T09:36:46.515Z,39.10
2022-08-16T09:39:16.237Z,39.00
2022-08-16T09:41:44.088Z,38.50
2022-08-16T09:45:11.697Z,37.60
2022-08-16T09:47:11.689Z,37.40
2022-08-16T09:49:40.807Z,36.50
2022-08-16T09:52:09.407Z,36.10
2022-08-16T09:54:38.285Z,36.10
2022-08-16T09:57:05.283Z,35.50
2022-08-16T09:59:38.470Z,35.20
2022-08-16T10:02:27.288Z,34.90
2022-08-16T10:04:55.286Z,34.30
2022-08-16T10:07:23.989Z,34.00
2022-08-16T10:09:55.527Z,33.90
2022-08-16T10:12:55.613Z,33.40
2022-08-16T10:15:24.529Z,31.90
2022-08-16T10:18:00.024Z,32.80
2022-08-16T10:20:34.667Z,32.30
2022-08-16T10:23:08.366Z,32.50
2022-08-16T10:27:17.257Z,32.50
2022-08-16T10:28:32.167Z,31.60
2022-08-16T10:31:04.355Z,31.00
2022-08-16T10:33:33.970Z,30.30
2022-08-16T10:36:06.179Z,30.30
2022-08-16T10:38:37.532Z,30.00
2022-08-16T10:41:06.736Z,30.00
2022-08-16T10:43:35.785Z,30.00
2022-08-16T10:46:04.201Z,30.00
2022-08-16T10:48:51.149Z,30.20
2022-08-16T10:51:18.992Z,30.40
2022-08-16T10:53:46.531Z,30.60
2022-08-16T10:56:52.877Z,30.80
2022-08-16T11:12:57.497Z,33.80
2022-08-16T11:15:24.690Z,34.00
2022-08-16T11:20:49.094Z,33.20
2022-08-16T11:23:17.005Z,32.50
2022-08-16T11:31:19.797Z,31.10
2022-08-16T11:33:52.788Z,30.40
2022-08-16T11:36:25.142Z,29.90
2022-08-16T11:38:57.581Z,29.60
2022-08-16T11:41:30.836Z,29.10
2022-08-16T11:44:00.364Z,28.90
2022-08-16T11:46:43.614Z,28.60
2022-08-16T11:49:14.241Z,28.60
2022-08-16T11:51:45.314Z,28.60
2022-08-16T11:54:20.360Z,28.80
2022-08-16T11:56:52.927Z,28.90
2022-08-16T11:59:28.805Z,28.80
2022-08-16T12:01:59.438Z,28.70
2022-08-16T12:04:27.983Z,28.50
2022-08-16T12:06:54.929Z,28.50
2022-08-16T12:09:23.929Z,28.50
2022-08-16T12:11:52.396Z,28.60
2022-08-16T12:14:22.896Z,28.50
2022-08-16T12:16:56.833Z,28.50
2022-08-16T12:19:34.075Z,28.50
2022-08-16T12:22:05.815Z,28.80
2022-08-16T12:24:45.696Z,29.30
2022-08-16T12:27:18.496Z,29.70
2022-08-16T12:29:45.282Z,29.70
2022-08-16T12:32:27.153Z,30.00
2022-08-16T12:34:58.981Z,30.20
2022-08-16T12:37:25.887Z,30.10
2022-08-16T12:39:56.770Z,29.90
2022-08-16T12:42:34.494Z,29.60
2022-08-16T12:45:08.246Z,29.10
2022-08-16T12:48:05.085Z,28.90
2022-08-16T12:50:40.738Z,28.70
2022-08-16T12:53:07.820Z,28.60
2022-08-16T12:55:42.046Z,28.80
2022-08-16T12:58:13.805Z,28.80
2022-08-16T13:01:00.118Z,28.80
2022-08-16T13:03:28.856Z,28.90
2022-08-16T13:05:59.618Z,28.80
2022-08-16T13:08:30.704Z,28.90
2022-08-16T13:11:00.600Z,28.70
2022-08-16T13:13:29.602Z,28.30
2022-08-16T13:16:03.671Z,28.00
2022-08-16T13:18:35.638Z,28.00
2022-08-16T13:21:06.023Z,28.00
2022-08-16T13:23:33.994Z,28.00
2022-08-16T13:26:04.281Z,28.00
2022-08-16T13:28:31.104Z,27.80
2022-08-16T13:30:58.571Z,27.80
2022-08-16T13:33:30.680Z,27.80
2022-08-16T13:36:00.717Z,27.90
2022-08-16T13:38:36.780Z,27.90
2022-08-16T13:41:12.675Z,27.90
2022-08-16T13:43:41.975Z,27.50
2022-08-16T13:46:09.259Z,27.30
2022-08-16T13:48:42.800Z,27.30
2022-08-16T13:51:18.749Z,27.20
2022-08-16T13:53:59.038Z,27.00
2022-08-16T13:56:37.136Z,27.10
2022-08-16T13:59:19.941Z,27.50
2022-08-16T14:01:55.228Z,27.60
2022-08-16T14:04:29.497Z,27.60
2022-08-16T14:07:00.002Z,27.40
2022-08-16T14:09:28.971Z,27.30
2022-08-16T14:12:00.788Z,27.20
2022-08-16T14:14:30.300Z,27.20
2022-08-16T14:16:59.824Z,27.20
2022-08-16T14:19:29.318Z,27.20
2022-08-16T14:22:15.401Z,27.20
2022-08-16T14:24:50.075Z,27.30
2022-08-16T14:27:18.923Z,27.40
2022-08-16T14:29:49.432Z,27.30
2022-08-16T14:32:34.201Z,27.40
2022-08-16T14:35:11.149Z,27.40
2022-08-16T14:37:39.519Z,27.40
2022-08-16T14:40:14.069Z,27.40
2022-08-16T14:42:47.196Z,27.50
2022-08-16T14:45:18.803Z,27.60
2022-08-16T14:47:46.607Z,27.70
2022-08-16T14:50:21.268Z,27.70
2022-08-16T14:53:00.282Z,27.80
2022-08-16T14:55:29.179Z,28.20
2022-08-16T14:57:56.372Z,28.30
2022-08-16T15:00:33.126Z,28.30
2022-08-16T15:03:05.740Z,28.50
2022-08-16T15:05:33.124Z,28.30
2022-08-16T15:08:00.490Z,28.30
2022-08-16T15:10:29.433Z,28.60
2022-08-16T15:13:00.785Z,28.30
2022-08-16T15:15:30.500Z,28.20
2022-08-16T15:17:59.021Z,28.10
2022-08-16T15:20:32.993Z,28.10
2022-08-16T15:23:02.703Z,28.10
2022-08-16T15:25:47.352Z,28.10
2022-08-16T15:28:31.749Z,28.20
2022-08-16T15:31:03.290Z,28.20
2022-08-16T15:33:33.700Z,28.20
2022-08-16T15:36:02.291Z,28.30
2022-08-16T15:38:55.087Z,28.30
2022-08-16T15:41:49.347Z,28.50
2022-08-16T15:44:23.114Z,28.60
2022-08-16T15:46:55.126Z,28.70
2022-08-16T15:49:37.369Z,28.80
2022-08-16T15:52:10.394Z,28.90
2022-08-16T15:54:52.447Z,29.00
2022-08-16T15:57:22.464Z,29.10
2022-08-16T15:59:56.127Z,29.10
2022-08-16T16:02:31.150Z,29.10
2022-08-16T16:05:06.614Z,29.10
2022-08-16T16:07:36.004Z,28.90
2022-08-16T16:10:12.907Z,28.80
2022-08-16T16:12:51.656Z,28.70
2022-08-16T16:15:25.352Z,28.50
2022-08-16T16:17:53.667Z,28.40
2022-08-16T16:20:24.359Z,28.50
2022-08-16T16:22:58.808Z,28.60
2022-08-16T16:25:25.966Z,28.70
2022-08-16T16:27:55.656Z,28.70
2022-08-16T16:30:42.972Z,28.80
2022-08-16T16:33:20.670Z,28.90
2022-08-16T16:35:54.917Z,29.00
2022-08-16T16:38:31.267Z,28.90
2022-08-16T16:41:09.923Z,28.90
2022-08-16T16:43:41.950Z,28.90
2022-08-16T16:46:40.222Z,29.10
2022-08-16T16:48:57.970Z,29.10
2022-08-16T16:51:27.974Z,29.10
2022-08-16T16:53:56.754Z,29.10
2022-08-16T16:56:31.391Z,29.10
2022-08-16T16:59:09.719Z,29.10
2022-08-16T17:01:59.867Z,29.10
2022-08-16T17:04:36.676Z,29.10
2022-08-16T17:07:03.866Z,29.10
2022-08-16T17:09:40.645Z,29.10
2022-08-16T17:12:22.656Z,29.00
2022-08-16T17:14:55.817Z,29.10
2022-08-16T17:17:23.484Z,29.10
2022-08-16T17:19:50.491Z,29.10
2022-08-16T17:22:20.212Z,29.00
2022-08-16T17:24:52.806Z,29.10
2022-08-16T17:27:33.214Z,29.20
2022-08-16T17:30:15.160Z,29.20
2022-08-16T17:32:50.106Z,29.30
2022-08-16T17:35:21.592Z,29.20
2022-08-16T17:37:51.541Z,29.30
2022-08-16T17:40:46.883Z,29.40
2022-08-16T17:43:24.797Z,29.50
2022-08-16T17:45:52.220Z,29.60
2022-08-16T17:48:22.257Z,29.50
2022-08-16T17:50:49.141Z,29.60
2022-08-16T17:53:21.934Z,29.70
2022-08-16T17:55:50.399Z,29.80
2022-08-16T17:58:23.031Z,29.90
2022-08-16T18:00:52.785Z,30.00
2022-08-16T18:04:07.803Z,30.00
2022-08-16T18:06:17.850Z,30.10
2022-08-16T18:08:48.530Z,30.10
2022-08-16T18:11:18.335Z,30.20
2022-08-16T18:13:46.326Z,30.40
2022-08-16T18:16:16.468Z,30.40
2022-08-16T18:18:44.648Z,30.50
2022-08-16T18:21:31.384Z,30.60
2022-08-16T18:23:58.766Z,30.70
2022-08-16T18:26:25.659Z,30.70
2022-08-16T18:28:52.766Z,30.80
2022-08-16T18:31:19.680Z,30.80
2022-08-16T18:33:46.649Z,30.90
2022-08-16T18:36:19.906Z,31.00
2022-08-16T18:38:49.749Z,31.00
2022-08-16T18:41:17.255Z,31.10
2022-08-16T18:44:23.610Z,31.20
2022-08-16T18:46:31.149Z,31.20
2022-08-16T18:48:57.849Z,31.30
2022-08-16T18:51:25.762Z,31.30
2022-08-16T18:53:53.855Z,31.50
2022-08-16T18:56:21.208Z,31.60
2022-08-16T18:58:48.154Z,31.70
2022-08-16T19:01:15.160Z,31.70
2022-08-16T19:03:42.061Z,31.80
2022-08-16T19:06:13.853Z,31.80
2022-08-16T19:08:44.112Z,32.00
2022-08-16T19:11:14.644Z,32.00
2022-08-16T19:13:44.065Z,32.10
2022-08-16T19:16:12.550Z,32.20
2022-08-16T19:18:39.950Z,32.30
2022-08-16T19:21:08.833Z,32.30
2022-08-16T19:23:37.644Z,32.60
2022-08-16T19:26:10.741Z,32.50
2022-08-16T19:28:58.312Z,32.80
2022-08-16T19:31:32.008Z,32.70
2022-08-16T19:34:00.198Z,32.90
2022-08-16T19:36:35.468Z,32.90
2022-08-16T19:39:09.412Z,33.00
2022-08-16T19:41:45.422Z,33.20
2022-08-16T19:44:13.354Z,33.30
2022-08-16T19:46:45.529Z,33.20
2022-08-16T19:49:15.778Z,33.30
2022-08-16T19:51:43.310Z,33.30
2022-08-16T19:54:10.159Z,33.50
2022-08-16T19:56:36.871Z,33.60
2022-08-16T19:59:21.086Z,33.80
2022-08-16T20:01:51.618Z,33.90
2022-08-16T20:04:18.920Z,33.90
2022-08-16T20:06:46.769Z,34.00
2022-08-16T20:09:15.164Z,34.10
2022-08-16T20:11:44.589Z,34.10
2022-08-16T20:14:11.818Z,34.40
2022-08-16T20:16:52.274Z,34.50
2022-08-16T20:19:20.144Z,34.50
2022-08-16T20:21:46.951Z,34.60
2022-08-16T20:24:32.797Z,34.70
2022-08-16T20:27:01.107Z,34.90
2022-08-16T20:29:29.385Z,34.90
2022-08-16T20:31:56.239Z,35.00
2022-08-16T20:34:22.991Z,35.10
2022-08-16T20:36:49.679Z,35.20
2022-08-16T20:39:17.026Z,35.30
2022-08-16T20:41:43.906Z,35.40
2022-08-16T20:44:12.701Z,35.50
2022-08-16T20:46:39.722Z,35.50
2022-08-16T20:49:09.204Z,35.70
2022-08-16T20:51:49.649Z,35.80
2022-08-16T20:54:18.895Z,36.00
2022-08-16T20:56:45.823Z,35.90
2022-08-16T20:59:12.566Z,36.00
2022-08-16T21:01:46.389Z,36.10
2022-08-16T21:04:18.719Z,36.10
2022-08-16T21:06:53.622Z,36.30
2022-08-16T21:09:33.527Z,36.40
2022-08-16T21:12:09.222Z,36.80
2022-08-16T21:14:38.297Z,36.70
2022-08-16T21:17:08.227Z,36.60
2022-08-16T21:19:35.719Z,36.70
2022-08-16T21:22:20.121Z,36.80
2022-08-16T21:24:47.873Z,37.30
2022-08-16T21:27:17.424Z,37.00
2022-08-16T21:29:45.925Z,37.00
2022-08-16T21:32:34.544Z,37.00
2022-08-16T21:35:08.391Z,37.20
2022-08-16T21:37:35.171Z,37.50
2022-08-16T21:40:03.342Z,37.30
2022-08-16T21:42:35.734Z,37.40
2022-08-16T21:45:03.314Z,37.50
2022-08-16T21:47:30.241Z,38.10
2022-08-16T21:49:57.086Z,37.80
2022-08-16T21:52:26.168Z,37.90
2022-08-16T21:54:56.337Z,38.00
2022-08-16T21:57:23.789Z,38.00
2022-08-16T21:59:54.629Z,38.00
2022-08-16T22:02:23.912Z,38.10
2022-08-16T22:04:51.537Z,38.20
2022-08-16T22:07:18.601Z,38.20
2022-08-16T22:09:47.013Z,38.20
2022-08-16T22:12:24.173Z,38.40
2022-08-16T22:14:51.565Z,38.70
2022-08-16T22:17:18.781Z,38.50
2022-08-16T22:19:46.323Z,38.70
2022-08-16T22:22:13.848Z,38.90
2022-08-16T22:24:40.760Z,38.90
2022-08-16T22:27:07.541Z,39.10
2022-08-16T22:29:34.661Z,39.20
2022-08-16T22:32:03.262Z,39.30
2022-08-16T22:34:31.336Z,39.40
2022-08-16T22:36:58.342Z,39.30
2022-08-16T22:39:25.862Z,39.30
2022-08-16T22:41:54.620Z,39.40
2022-08-16T22:44:21.430Z,39.50
2022-08-16T22:46:48.310Z,39.50
2022-08-16T22:49:15.651Z,39.60
2022-08-16T22:51:42.632Z,39.70
2022-08-16T22:54:45.776Z,39.90
2022-08-16T22:56:57.373Z,40.00
2022-08-16T22:59:25.127Z,39.90
2022-08-16T23:01:52.265Z,39.90
2022-08-16T23:04:19.149Z,40.00
2022-08-16T23:06:45.939Z,40.10
2022-08-16T23:09:12.755Z,40.20
2022-08-16T23:11:39.489Z,40.30
2022-08-16T23:14:06.437Z,40.30
2022-08-16T23:16:34.719Z,40.30
2022-08-16T23:19:12.406Z,40.40
2022-08-16T23:21:42.531Z,40.70
2022-08-16T23:24:11.592Z,40.60
2022-08-16T23:26:47.566Z,40.50
2022-08-16T23:29:24.032Z,40.60
2022-08-16T23:31:59.342Z,40.70
2022-08-16T23:34:28.566Z,40.90
2022-08-16T23:36:56.451Z,40.80
2022-08-16T23:39:24.460Z,40.80
2022-08-16T23:41:51.853Z,40.90
2022-08-16T23:44:41.932Z,41.00
2022-08-16T23:47:06.157Z,41.10
2022-08-16T23:49:59.065Z,41.10
2022-08-16T23:52:54.789Z,41.10
2022-08-16T23:55:08.473Z,41.20
2022-08-16T23:57:35.146Z,41.40
